| time (UTC) | temp C | wind direction | speed KPH | gust KPH | rain 1hr cm | rain 24hr cm | rain mn cm | humidity % | barometer mb |
| 20260510211105 | 21 | 290 | 1.6 | 6.4 | 0.00 | 0.00 | 0.00 | 58 | 1013.1 |
| 20260510210100 | 21 | 255 | 1.6 | 3.2 | 0.00 | 0.00 | 0.00 | 56 | 1013.0 |
| 20260510205035 | 21 | 0.0 | 3.2 | 0.00 | 0.00 | 0.00 | 56 | 1012.8 | |
| 20260510204030 | 21 | 225 | 0.0 | 3.2 | 0.00 | 0.00 | 0.00 | 56 | 1012.7 |
| 20260510203025 | 21 | 225 | 1.6 | 3.2 | 0.00 | 0.00 | 0.00 | 57 | 1012.6 |
| 20260510202020 | 21 | 261 | 1.6 | 6.4 | 0.00 | 0.00 | 0.00 | 56 | 1012.4 |
| 20260510201115 | 21 | 270 | 0.0 | 3.2 | 0.00 | 0.00 | 0.00 | 57 | 1012.1 |
| 20260510200110 | 21 | 293 | 1.6 | 6.4 | 0.00 | 0.00 | 0.00 | 56 | 1011.9 |
| 20260510195104 | 22 | 293 | 1.6 | 3.2 | 0.00 | 0.00 | 0.00 | 53 | 1011.7 |
| 20260510194058 | 22 | 307 | 3.2 | 6.4 | 0.00 | 0.00 | 0.00 | 52 | 1011.6 |
| 20260510193113 | 22 | 261 | 6.4 | 12.9 | 0.00 | 0.00 | 0.00 | 50 | 1011.4 |
| 20260510192208 | 22 | 293 | 6.4 | 11.3 | 0.00 | 0.00 | 0.00 | 50 | 1011.4 |
| 20260510191043 | 23 | 260 | 3.2 | 6.4 | 0.00 | 0.00 | 0.00 | 47 | 1011.2 |
| 20260510190037 | 23 | 232 | 3.2 | 6.4 | 0.00 | 0.00 | 0.00 | 46 | 1011.3 |
| 20260510185032 | 23 | 248 | 1.6 | 3.2 | 0.00 | 0.00 | 0.00 | 47 | 1011.0 |
| 20260510184027 | 23 | 236 | 4.8 | 9.7 | 0.00 | 0.00 | 0.00 | 46 | 1010.9 |
| 20260510183022 | 23 | 212 | 4.8 | 11.3 | 0.00 | 0.00 | 0.00 | 45 | 1010.9 |
| 20260510182016 | 24 | 192 | 8.0 | 14.5 | 0.00 | 0.00 | 0.00 | 44 | 1010.7 |
| 20260510181111 | 24 | 161 | 8.0 | 17.7 | 0.00 | 0.00 | 0.00 | 44 | 1010.6 |
| 20260510180105 | 24 | 173 | 9.7 | 20.9 | 0.00 | 0.00 | 0.00 | 45 | 1010.7 |
| 20260510175058 | 24 | 204 | 9.7 | 22.5 | 0.00 | 0.00 | 0.00 | 43 | 1010.6 |
| 20260510174052 | 25 | 195 | 11.3 | 20.9 | 0.00 | 0.00 | 0.00 | 43 | 1010.7 |
| 20260510173047 | 25 | 203 | 8.0 | 17.7 | 0.00 | 0.00 | 0.00 | 43 | 1010.5 |
| 20260510172042 | 25 | 181 | 9.7 | 22.5 | 0.00 | 0.00 | 0.00 | 43 | 1010.7 |
| 20260510171037 | 25 | 147 | 8.0 | 17.7 | 0.00 | 0.00 | 0.00 | 42 | 1010.6 |
| 20260510170032 | 25 | 134 | 11.3 | 22.5 | 0.00 | 0.00 | 0.00 | 42 | 1010.4 |
| 20260510165027 | 25 | 161 | 9.7 | 20.9 | 0.00 | 0.00 | 0.00 | 42 | 1010.5 |
| 20260510164022 | 25 | 163 | 12.9 | 27.4 | 0.00 | 0.00 | 0.00 | 42 | 1010.5 |
| 20260510163016 | 26 | 188 | 8.0 | 20.9 | 0.00 | 0.00 | 0.00 | 42 | 1010.6 |
| 20260510162132 | 26 | 166 | 9.7 | 24.1 | 0.00 | 0.00 | 0.00 | 42 | 1010.6 |
| 20260510161147 | 26 | 147 | 11.3 | 27.4 | 0.00 | 0.00 | 0.00 | 42 | 1010.6 |
| 20260510160120 | 26 | 160 | 11.3 | 24.1 | 0.00 | 0.00 | 0.00 | 42 | 1010.6 |
| 20260510155135 | 26 | 193 | 11.3 | 22.5 | 0.00 | 0.00 | 0.00 | 42 | 1010.5 |
| 20260510154050 | 26 | 144 | 11.3 | 25.7 | 0.00 | 0.00 | 0.00 | 41 | 1010.6 |
| 20260510153105 | 26 | 194 | 12.9 | 29.0 | 0.00 | 0.00 | 0.00 | 41 | 1010.5 |
| 20260510152039 | 26 | 222 | 12.9 | 22.5 | 0.00 | 0.00 | 0.00 | 40 | 1010.7 |
| 20260510151034 | 27 | 168 | 9.7 | 24.1 | 0.00 | 0.00 | 0.00 | 40 | 1010.8 |
| 20260510150029 | 26 | 186 | 14.5 | 29.0 | 0.00 | 0.00 | 0.00 | 42 | 1011.0 |
| 20260510145024 | 26 | 227 | 16.1 | 29.0 | 0.00 | 0.00 | 0.00 | 42 | 1010.9 |
| 20260510144019 | 26 | 185 | 16.1 | 33.8 | 0.00 | 0.00 | 0.00 | 43 | 1011.2 |
| 20260510143114 | 26 | 224 | 12.9 | 37.0 | 0.00 | 0.00 | 0.00 | 42 | 1011.2 |
| 20260510142108 | 26 | 196 | 12.9 | 32.2 | 0.00 | 0.00 | 0.00 | 42 | 1011.2 |
| 20260510141102 | 26 | 164 | 14.5 | 29.0 | 0.00 | 0.00 | 0.00 | 41 | 1011.3 |
| 20260510140056 | 26 | 199 | 16.1 | 37.0 | 0.00 | 0.00 | 0.00 | 42 | 1011.4 |
| 20260510135051 | 27 | 153 | 11.3 | 32.2 | 0.00 | 0.00 | 0.00 | 42 | 1011.5 |
| 20260510134046 | 26 | 209 | 14.5 | 27.4 | 0.00 | 0.00 | 0.00 | 42 | 1011.8 |
| 20260510133041 | 26 | 211 | 12.9 | 24.1 | 0.00 | 0.00 | 0.00 | 42 | 1011.7 |
| 20260510132037 | 26 | 157 | 16.1 | 27.4 | 0.00 | 0.00 | 0.00 | 43 | 1011.9 |
| 20260510131031 | 26 | 235 | 14.5 | 32.2 | 0.00 | 0.00 | 0.00 | 42 | 1012.0 |
| 20260510130047 | 26 | 202 | 16.1 | 29.0 | 0.00 | 0.00 | 0.00 | 43 | 1012.1 |
| 20260510125042 | 26 | 207 | 14.5 | 29.0 | 0.00 | 0.00 | 0.00 | 41 | 1012.2 |
| 20260510124015 | 26 | 212 | 12.9 | 32.2 | 0.00 | 0.00 | 0.00 | 43 | 1012.3 |
| 20260510123131 | 26 | 222 | 14.5 | 29.0 | 0.00 | 0.00 | 0.00 | 44 | 1012.5 |
| 20260510122105 | 25 | 209 | 12.9 | 24.1 | 0.00 | 0.00 | 0.00 | 46 | 1012.5 |
| 20260510121059 | 25 | 189 | 12.9 | 22.5 | 0.00 | 0.00 | 0.00 | 44 | 1012.7 |
| 20260510120114 | 25 | 159 | 9.7 | 20.9 | 0.00 | 0.00 | 0.00 | 42 | 1013.0 |
| 20260510115049 | 25 | 217 | 9.7 | 17.7 | 0.00 | 0.00 | 0.00 | 46 | 1012.9 |
| 20260510114103 | 25 | 233 | 4.8 | 14.5 | 0.00 | 0.00 | 0.00 | 46 | 1013.0 |
| 20260510113059 | 24 | 123 | 4.8 | 11.3 | 0.00 | 0.00 | 0.00 | 48 | 1013.2 |
| 20260510112033 | 25 | 214 | 3.2 | 11.3 | 0.00 | 0.00 | 0.00 | 48 | 1013.4 |
| 20260510111028 | 25 | 203 | 4.8 | 12.9 | 0.00 | 0.00 | 0.00 | 46 | 1013.7 |
| 20260510110023 | 25 | 163 | 8.0 | 14.5 | 0.00 | 0.00 | 0.00 | 47 | 1013.8 |
| 20260510105018 | 26 | 202 | 3.2 | 11.3 | 0.00 | 0.00 | 0.00 | 47 | 1013.9 |
| 20260510104113 | 25 | 45 | 3.2 | 14.5 | 0.00 | 0.00 | 0.00 | 50 | 1013.9 |
| 20260510103127 | 24 | 73 | 1.6 | 6.4 | 0.00 | 0.00 | 0.00 | 52 | 1014.0 |
| 20260510102101 | 24 | 125 | 3.2 | 11.3 | 0.00 | 0.00 | 0.00 | 51 | 1014.1 |
| 20260510101056 | 23 | 85 | 4.8 | 11.3 | 0.00 | 0.00 | 0.00 | 54 | 1014.2 |
| 20260510100051 | 23 | 101 | 4.8 | 11.3 | 0.00 | 0.00 | 0.00 | 57 | 1014.3 |
| 20260510095046 | 22 | 76 | 4.8 | 12.9 | 0.00 | 0.00 | 0.00 | 58 | 1014.2 |
| 20260510094041 | 22 | 72 | 3.2 | 11.3 | 0.00 | 0.03 | 0.00 | 59 | 1014.3 |
| 20260510093036 | 22 | 88 | 4.8 | 9.7 | 0.00 | 0.10 | 0.00 | 60 | 1014.5 |
| 20260510092050 | 22 | 90 | 3.2 | 9.7 | 0.00 | 0.18 | 0.00 | 60 | 1014.4 |
| 20260510091025 | 21 | 63 | 3.2 | 9.7 | 0.00 | 0.18 | 0.00 | 60 | 1014.5 |
| 20260510090020 | 21 | 98 | 3.2 | 9.7 | 0.00 | 0.18 | 0.00 | 62 | 1014.5 |
| 20260510085115 | 21 | 113 | 1.6 | 3.2 | 0.00 | 0.18 | 0.00 | 65 | 1014.6 |
| 20260510084110 | 20 | 85 | 1.6 | 6.4 | 0.00 | 0.18 | 0.00 | 68 | 1014.8 |
| 20260510083105 | 19 | 9 | 3.2 | 6.4 | 0.00 | 0.18 | 0.00 | 71 | 1014.8 |
| 20260510082058 | 20 | 292 | 1.6 | 6.4 | 0.00 | 0.18 | 0.00 | 71 | 1014.8 |
| 20260510081054 | 18 | 26 | 1.6 | 3.2 | 0.00 | 0.18 | 0.00 | 73 | 1014.9 |
| 20260510080049 | 20 | 101 | 0.0 | 3.2 | 0.00 | 0.18 | 0.00 | 72 | 1014.9 |
| 20260510075043 | 18 | 113 | 1.6 | 6.4 | 0.00 | 0.18 | 0.00 | 76 | 1014.9 |
| 20260510074038 | 17 | 90 | 1.6 | 6.4 | 0.00 | 0.18 | 0.00 | 79 | 1014.9 |
| 20260510073054 | 17 | 173 | 3.2 | 6.4 | 0.00 | 0.18 | 0.00 | 79 | 1015.0 |
| 20260510072028 | 18 | 270 | 1.6 | 3.2 | 0.00 | 0.18 | 0.00 | 77 | 1015.2 |
| 20260510071043 | 17 | 270 | 1.6 | 3.2 | 0.00 | 0.18 | 0.00 | 78 | 1015.1 |
| 20260510070018 | 17 | 296 | 1.6 | 6.4 | 0.00 | 0.18 | 0.00 | 77 | 1015.1 |
| 20260510065113 | 17 | 315 | 0.0 | 3.2 | 0.00 | 0.18 | 0.00 | 80 | 1015.1 |
| 20260510064107 | 15 | 0.0 | 3.2 | 0.00 | 0.18 | 0.00 | 85 | 1015.1 | |
| 20260510063120 | 15 | 315 | 1.6 | 3.2 | 0.00 | 0.18 | 0.00 | 84 | 1014.9 |
| 20260510062055 | 15 | 315 | 1.6 | 3.2 | 0.00 | 0.18 | 0.00 | 85 | 1014.8 |
| 20260510061110 | 15 | 0.0 | 3.2 | 0.00 | 0.18 | 0.00 | 87 | 1014.8 | |
| 20260510060044 | 13 | 315 | 0.0 | 3.2 | 0.00 | 0.18 | 0.00 | 89 | 1014.7 |
| 20260510055039 | 13 | 0.0 | 3.2 | 0.00 | 0.18 | 0.00 | 89 | 1014.6 | |
| 20260510054054 | 13 | 315 | 1.6 | 3.2 | 0.00 | 0.18 | 0.00 | 90 | 1014.5 |
| 20260510053029 | 13 | 338 | 0.0 | 3.2 | 0.00 | 0.18 | 0.00 | 90 | 1014.4 |
| 20260510052024 | 13 | 338 | 1.6 | 3.2 | 0.00 | 0.18 | 0.00 | 90 | 1014.5 |
| 20260510051019 | 13 | 0.0 | 0.0 | 0.00 | 0.18 | 0.00 | 91 | 1014.4 | |
| 20260510050114 | 13 | 0.0 | 3.2 | 0.00 | 0.18 | 0.00 | 92 | 1014.4 | |
| 20260510045109 | 13 | 0.0 | 0.0 | 0.00 | 0.18 | 0.00 | 93 | 1014.2 | |
| 20260510044103 | 13 | 338 | 1.6 | 3.2 | 0.00 | 0.18 | 0.00 | 92 | 1014.4 |
| 20260510043117 | 13 | 338 | 0.0 | 3.2 | 0.00 | 0.18 | 0.00 | 92 | 1014.3 |
| 20260510042052 | 13 | 0.0 | 3.2 | 0.00 | 0.18 | 0.00 | 92 | 1014.5 | |
| 20260510041047 | 13 | 23 | 0.0 | 3.2 | 0.00 | 0.18 | 0.00 | 92 | 1014.4 |
| 20260510040041 | 13 | 23 | 0.0 | 3.2 | 0.00 | 0.18 | 0.00 | 92 | 1014.2 |
| 20260510035037 | 13 | 0.0 | 0.0 | 0.00 | 0.18 | 0.00 | 92 | 1014.2 | |
| 20260510034031 | 13 | 0.0 | 0.0 | 0.00 | 0.18 | 0.00 | 92 | 1014.3 | |
| 20260510033126 | 13 | 23 | 0.0 | 3.2 | 0.00 | 0.18 | 0.00 | 92 | 1014.3 |
| 20260510032041 | 13 | 0.0 | 3.2 | 0.00 | 0.18 | 0.00 | 91 | 1014.2 | |
| 20260510031115 | 13 | 0.0 | 0.0 | 0.00 | 0.18 | 0.00 | 91 | 1014.3 | |
| 20260510030110 | 13 | 23 | 0.0 | 3.2 | 0.00 | 0.18 | 0.00 | 91 | 1014.2 |
| 20260510025105 | 13 | 23 | 0.0 | 3.2 | 0.00 | 0.18 | 0.00 | 90 | 1014.2 |
| 20260510024059 | 13 | 0.0 | 0.0 | 0.00 | 0.18 | 0.00 | 92 | 1014.1 | |
| 20260510023114 | 13 | 23 | 0.0 | 3.2 | 0.00 | 0.18 | 0.00 | 91 | 1014.0 |
| 20260510022048 | 13 | 0.0 | 3.2 | 0.00 | 0.18 | 0.00 | 91 | 1014.0 | |
| 20260510021043 | 14 | 23 | 0.0 | 3.2 | 0.00 | 0.18 | 0.00 | 90 | 1013.9 |
| 20260510020059 | 14 | 23 | 0.0 | 3.2 | 0.00 | 0.18 | 0.00 | 90 | 1014.0 |
| 20260510015033 | 14 | 23 | 1.6 | 3.2 | 0.00 | 0.18 | 0.00 | 89 | 1013.9 |
| 20260510014028 | 14 | 23 | 0.0 | 3.2 | 0.00 | 0.18 | 0.00 | 89 | 1013.9 |
| 20260510013023 | 14 | 0.0 | 3.2 | 0.00 | 0.18 | 0.00 | 89 | 1014.0 | |
| 20260510012018 | 14 | 0.0 | 0.0 | 0.00 | 0.18 | 0.00 | 88 | 1013.9 | |
| 20260510011113 | 14 | 0.0 | 0.0 | 0.00 | 0.18 | 0.00 | 88 | 1013.8 | |
| 20260510010108 | 15 | 23 | 1.6 | 3.2 | 0.00 | 0.18 | 0.00 | 87 | 1013.9 |
| 20260510005102 | 14 | 23 | 3.2 | 3.2 | 0.00 | 0.18 | 0.00 | 87 | 1014.0 |
| 20260510004057 | 14 | 23 | 3.2 | 6.4 | 0.00 | 0.18 | 0.00 | 87 | 1014.1 |
| 20260510003052 | 15 | 23 | 1.6 | 3.2 | 0.00 | 0.18 | 0.00 | 86 | 1014.2 |
| 20260510002047 | 15 | 23 | 3.2 | 6.4 | 0.00 | 0.18 | 0.00 | 87 | 1014.2 |
| 20260510001042 | 15 | 45 | 1.6 | 3.2 | 0.00 | 0.18 | 0.00 | 87 | 1014.3 |
| 20260510000036 | 15 | 0.0 | 3.2 | 0.00 | 0.18 | 0.00 | 86 | 1014.3 | |
| 20260509235031 | 15 | 45 | 1.6 | 3.2 | 0.00 | 0.18 | 0.00 | 85 | 1014.3 |
| 20260509234026 | 15 | 23 | 4.8 | 11.3 | 0.00 | 0.18 | 0.00 | 83 | 1014.3 |
| 20260509233020 | 15 | 11 | 3.2 | 6.4 | 0.00 | 0.18 | 0.00 | 83 | 1014.3 |
| 20260509232115 | 15 | 19 | 4.8 | 6.4 | 0.00 | 0.18 | 0.00 | 83 | 1014.3 |
| 20260509231110 | 15 | 19 | 4.8 | 11.3 | 0.00 | 0.18 | 0.00 | 84 | 1014.5 |
| 20260509230105 | 15 | 23 | 1.6 | 9.7 | 0.00 | 0.18 | 0.00 | 86 | 1014.5 |
| 20260509225059 | 15 | 23 | 3.2 | 6.4 | 0.00 | 0.18 | 0.00 | 86 | 1014.4 |
| 20260509224054 | 15 | 35 | 3.2 | 6.4 | 0.00 | 0.18 | 0.00 | 85 | 1014.5 |
| 20260509223048 | 16 | 28 | 3.2 | 6.4 | 0.00 | 0.18 | 0.00 | 83 | 1014.5 |
| 20260509222043 | 16 | 14 | 1.6 | 6.4 | 0.00 | 0.18 | 0.00 | 83 | 1014.5 |
| 20260509221038 | 16 | 0 | 0.0 | 3.2 | 0.00 | 0.18 | 0.00 | 83 | 1014.4 |
| 20260509220033 | 16 | 17 | 1.6 | 3.2 | 0.00 | 0.18 | 0.00 | 82 | 1014.5 |
| 20260509215028 | 16 | 23 | 1.6 | 3.2 | 0.00 | 0.18 | 0.18 | 81 | 1014.4 |
| 20260509214043 | 16 | 16 | 1.6 | 6.4 | 0.00 | 0.18 | 0.18 | 80 | 1014.2 |
| 20260509213018 | 16 | 23 | 3.2 | 6.4 | 0.00 | 0.18 | 0.18 | 80 | 1014.2 |
| 20260509212112 | 16 | 20 | 1.6 | 3.2 | 0.00 | 0.18 | 0.18 | 80 | 1014.2 |